createdAt,value
2023-03-12T00:02:26.389Z,98069.13
2023-03-12T00:05:44.622Z,98070.23
2023-03-12T00:09:04.767Z,98076.67
2023-03-12T00:12:21.122Z,98077.38
2023-03-12T00:15:37.675Z,98077.23
2023-03-12T00:18:56.346Z,98081.32
2023-03-12T00:22:12.904Z,98088.63
2023-03-12T00:25:29.325Z,98098.24
2023-03-12T00:28:46.062Z,98086.16
2023-03-12T00:32:02.547Z,98096.78
2023-03-12T00:35:19.275Z,98093.37
2023-03-12T00:38:35.778Z,98099.39
2023-03-12T00:41:51.883Z,98105.92
2023-03-12T00:45:08.843Z,98108.58
2023-03-12T00:48:24.838Z,98112.95
2023-03-12T00:51:42.681Z,98110.33
2023-03-12T00:54:59.623Z,98108.16
2023-03-12T00:58:17.096Z,98113.80
2023-03-12T01:01:33.592Z,98125.17
2023-03-12T01:04:49.788Z,98114.36
2023-03-12T01:08:05.940Z,98126.45
2023-03-12T01:11:25.819Z,98124.38
2023-03-12T01:14:39.619Z,98135.09
2023-03-12T01:17:56.009Z,98140.89
2023-03-12T01:21:13.046Z,98144.45
2023-03-12T01:24:29.340Z,98143.64
2023-03-12T01:27:45.451Z,98144.31
2023-03-12T01:31:02.049Z,98144.45
2023-03-12T01:34:20.895Z,98137.45
2023-03-12T01:37:38.000Z,98127.74
2023-03-12T01:40:54.424Z,98132.72
2023-03-12T01:44:14.990Z,98133.91
2023-03-12T01:47:32.709Z,98133.16
2023-03-12T01:50:52.007Z,98135.11
2023-03-12T01:54:13.160Z,98135.75
2023-03-12T01:57:35.125Z,98137.56
2023-03-12T02:00:52.421Z,98137.15
2023-03-12T02:04:10.516Z,98136.98
2023-03-12T02:07:27.337Z,98140.30
2023-03-12T02:10:43.646Z,98136.03
2023-03-12T02:13:59.707Z,98149.31
2023-03-12T02:17:16.996Z,98155.20
2023-03-12T02:20:40.705Z,98152.28
2023-03-12T02:24:03.572Z,98154.39
2023-03-12T02:27:21.248Z,98165.52
2023-03-12T02:30:43.531Z,98167.31
2023-03-12T02:34:01.353Z,98164.03
2023-03-12T02:37:17.388Z,98166.53
2023-03-12T02:40:39.879Z,98175.42
2023-03-12T02:44:02.623Z,98176.95
2023-03-12T02:47:19.060Z,98183.55
2023-03-12T02:50:35.356Z,98183.30
2023-03-12T02:53:53.290Z,98179.52
2023-03-12T02:57:09.740Z,98191.59
2023-03-12T03:00:28.761Z,98185.41
2023-03-12T03:03:44.860Z,98195.23
2023-03-12T03:07:01.472Z,98199.95
2023-03-12T03:10:19.677Z,98212.29
2023-03-12T03:13:35.853Z,98215.58
2023-03-12T03:16:51.930Z,98214.99
2023-03-12T03:20:12.109Z,98216.88
2023-03-12T03:23:28.250Z,98210.27
2023-03-12T03:26:45.027Z,98220.13
2023-03-12T03:30:01.629Z,98226.70
2023-03-12T03:33:19.361Z,98224.69
2023-03-12T03:36:35.904Z,98232.38
2023-03-12T03:39:53.780Z,98240.64
2023-03-12T03:43:09.976Z,98232.73
2023-03-12T03:46:26.203Z,98239.02
2023-03-12T03:49:44.198Z,98244.78
2023-03-12T03:53:00.642Z,98254.61
2023-03-12T03:56:19.646Z,98255.19
2023-03-12T03:59:37.457Z,98263.49
2023-03-12T04:02:54.020Z,98265.34
2023-03-12T04:06:12.854Z,98264.86
2023-03-12T04:09:31.282Z,98276.94
2023-03-12T04:12:47.399Z,98280.75
2023-03-12T04:16:03.837Z,98282.02
2023-03-12T04:19:20.557Z,98282.60
2023-03-12T04:22:37.069Z,98274.70
2023-03-12T04:25:53.831Z,98275.41
2023-03-12T04:29:11.308Z,98277.89
2023-03-12T04:32:28.695Z,98276.68
2023-03-12T04:35:44.956Z,98282.02
2023-03-12T04:39:01.172Z,98280.63
2023-03-12T04:42:19.718Z,98282.38
2023-03-12T04:45:36.474Z,98281.70
2023-03-12T04:48:52.808Z,98275.44
2023-03-12T04:52:09.010Z,98283.35
2023-03-12T04:55:25.385Z,98291.91
2023-03-12T04:58:42.429Z,98285.89
2023-03-12T05:01:58.770Z,98289.30
2023-03-12T05:05:18.657Z,98285.39
2023-03-12T05:08:34.911Z,98290.73
2023-03-12T05:11:51.302Z,98295.59
2023-03-12T05:15:08.441Z,98294.16
2023-03-12T05:18:27.298Z,98281.16
2023-03-12T05:21:45.211Z,98290.86
2023-03-12T05:25:01.524Z,98297.14
2023-03-12T05:28:17.755Z,98305.42
2023-03-12T05:31:37.323Z,98310.28
2023-03-12T05:34:54.346Z,98311.09
2023-03-12T05:38:10.743Z,98314.14
2023-03-12T05:41:32.942Z,98317.12
2023-03-12T05:44:52.274Z,98312.50
2023-03-12T05:48:09.754Z,98323.58
2023-03-12T05:51:27.061Z,98335.05
2023-03-12T05:54:43.437Z,98332.05
2023-03-12T05:57:59.658Z,98339.50
2023-03-12T06:01:22.667Z,98351.68
2023-03-12T06:04:40.201Z,98358.51
2023-03-12T06:07:57.934Z,98362.30
2023-03-12T06:11:15.316Z,98354.92
2023-03-12T06:14:31.536Z,98368.18
2023-03-12T06:17:48.847Z,98371.00
2023-03-12T06:21:17.141Z,98381.70
2023-03-12T06:24:33.914Z,98374.89
2023-03-12T06:27:51.666Z,98377.84
2023-03-12T06:31:08.112Z,98383.09
2023-03-12T06:34:24.397Z,98384.59
2023-03-12T06:37:42.605Z,98387.64
2023-03-12T06:41:07.066Z,98392.22
2023-03-12T06:44:24.535Z,98387.77
2023-03-12T06:47:41.477Z,98402.83
2023-03-12T06:50:57.810Z,98409.42
2023-03-12T06:54:14.019Z,98407.19
2023-03-12T06:57:30.111Z,98404.58
2023-03-12T07:00:47.231Z,98422.00
2023-03-12T07:04:03.515Z,98421.44
2023-03-12T07:07:22.231Z,98410.75
2023-03-12T07:10:38.675Z,98407.00
2023-03-12T07:13:55.549Z,98422.63
2023-03-12T07:17:13.035Z,98420.07
2023-03-12T07:20:29.747Z,98430.38
2023-03-12T07:23:46.023Z,98423.25
2023-03-12T07:27:02.906Z,98423.29
2023-03-12T07:30:21.402Z,98423.68
2023-03-12T07:33:38.011Z,98418.99
2023-03-12T07:36:55.579Z,98418.61
2023-03-12T07:40:14.437Z,98419.20
2023-03-12T07:43:31.033Z,98429.98
2023-03-12T07:46:47.700Z,98429.09
2023-03-12T07:50:04.308Z,98426.90
2023-03-12T07:53:20.902Z,98429.72
2023-03-12T07:56:37.736Z,98430.91
2023-03-12T07:59:54.094Z,98434.17
2023-03-12T08:03:11.536Z,98428.34
2023-03-12T08:06:27.839Z,98436.90
2023-03-12T08:09:45.754Z,98433.42
2023-03-12T08:13:01.986Z,98431.02
2023-03-12T08:16:19.466Z,98438.72
2023-03-12T08:19:36.733Z,98435.64
2023-03-12T08:22:53.423Z,98433.19
2023-03-12T08:26:09.988Z,98428.30
2023-03-12T08:29:26.343Z,98428.59
2023-03-12T08:32:44.617Z,98427.56
2023-03-12T08:36:08.307Z,98427.63
2023-03-12T08:39:24.418Z,98440.16
2023-03-12T08:42:41.032Z,98439.48
2023-03-12T08:46:02.766Z,98447.86
2023-03-12T08:49:19.925Z,98449.55
2023-03-12T08:52:36.150Z,98448.59
2023-03-12T08:55:52.417Z,98446.27
2023-03-12T08:59:09.285Z,98437.42
2023-03-12T09:02:25.827Z,98443.00
2023-03-12T09:05:42.438Z,98453.30
2023-03-12T09:09:00.272Z,98457.01
2023-03-12T09:12:17.468Z,98459.09
2023-03-12T09:15:34.220Z,98459.45
2023-03-12T09:18:50.743Z,98459.81
2023-03-12T09:22:06.939Z,98459.94
2023-03-12T09:25:24.215Z,98450.24
2023-03-12T09:28:40.142Z,98450.56
2023-03-12T09:31:56.305Z,98454.33
2023-03-12T09:35:13.990Z,98457.14
2023-03-12T09:38:32.570Z,98459.31
2023-03-12T09:41:52.907Z,98461.94
2023-03-12T09:45:16.486Z,98470.81
2023-03-12T09:48:39.616Z,98480.70
2023-03-12T09:51:59.575Z,98470.64
2023-03-12T09:55:21.339Z,98465.40
2023-03-12T09:58:43.266Z,98454.33
2023-03-12T10:02:04.173Z,98462.68
2023-03-12T10:05:25.573Z,98461.08
2023-03-12T10:08:54.630Z,98459.95
2023-03-12T10:12:19.154Z,98451.08
2023-03-12T10:15:48.309Z,98447.28
2023-03-12T10:19:18.351Z,98447.13
2023-03-12T10:22:50.788Z,98445.16
2023-03-12T10:26:08.605Z,98445.95
2023-03-12T10:29:30.293Z,98447.08
2023-03-12T10:32:52.064Z,98441.14
2023-03-12T10:36:08.915Z,98439.17
2023-03-12T10:39:27.086Z,98445.11
2023-03-12T10:42:43.968Z,98443.77
2023-03-12T10:46:07.531Z,98450.66
2023-03-12T10:49:41.684Z,98449.50
2023-03-12T10:53:01.616Z,98453.29
2023-03-12T10:56:20.284Z,98446.66
2023-03-12T10:59:43.487Z,98455.88
2023-03-12T11:03:06.650Z,98455.76
2023-03-12T11:06:30.856Z,98466.16
2023-03-12T11:09:47.237Z,98463.29
2023-03-12T11:13:11.835Z,98467.40
2023-03-12T11:16:36.283Z,98463.75
2023-03-12T11:19:54.463Z,98466.32
2023-03-12T11:23:20.949Z,98459.00
2023-03-12T11:26:43.108Z,98475.42
2023-03-12T11:30:02.248Z,98465.86
2023-03-12T11:33:21.251Z,98469.69
2023-03-12T11:36:48.704Z,98474.64
2023-03-12T11:40:30.535Z,98469.35
2023-03-12T11:44:01.786Z,98466.55
2023-03-12T11:47:42.293Z,98466.69
2023-03-12T11:51:08.394Z,98466.23
2023-03-12T11:55:07.379Z,98456.84
2023-03-12T11:58:58.475Z,98481.85
2023-03-12T12:02:32.329Z,98479.46
2023-03-12T12:05:56.805Z,98470.78
2023-03-12T12:09:23.983Z,98478.38
2023-03-12T12:12:56.071Z,98482.80
2023-03-12T12:16:32.147Z,98471.31
2023-03-12T12:19:59.046Z,98473.05
2023-03-12T12:23:31.274Z,98471.42
2023-03-12T12:26:54.665Z,98464.51
2023-03-12T12:30:26.768Z,98464.00
2023-03-12T12:33:54.754Z,98483.78
2023-03-12T12:37:22.907Z,98478.31
2023-03-12T12:40:43.239Z,98464.27
2023-03-12T12:44:05.418Z,98479.40
2023-03-12T12:47:25.979Z,98471.31
2023-03-12T12:50:46.120Z,98482.36
2023-03-12T12:54:06.538Z,98478.23
2023-03-12T12:57:27.019Z,98487.16
2023-03-12T13:00:54.352Z,98486.26
2023-03-12T13:04:17.307Z,98484.66
2023-03-12T13:07:41.483Z,98483.57
2023-03-12T13:11:16.344Z,98483.50
2023-03-12T13:14:26.765Z,98476.39
2023-03-12T13:18:15.577Z,98466.00
2023-03-12T13:21:39.696Z,98476.06
2023-03-12T13:25:01.964Z,98478.02
2023-03-12T13:29:12.236Z,98477.02
2023-03-12T13:33:06.763Z,98472.63
2023-03-12T13:36:34.574Z,98471.38
2023-03-12T13:39:52.601Z,98470.39
2023-03-12T13:43:19.916Z,98474.68
2023-03-12T13:46:54.361Z,98484.22
2023-03-12T13:50:14.567Z,98473.54
2023-03-12T13:53:38.621Z,98486.53
2023-03-12T13:57:05.337Z,98487.66
2023-03-12T14:00:29.342Z,98472.75
2023-03-12T14:03:50.457Z,98480.30
2023-03-12T14:07:24.553Z,98474.33
2023-03-12T14:10:52.216Z,98473.19
2023-03-12T14:14:37.367Z,98471.07
2023-03-12T14:17:54.507Z,98466.59
2023-03-12T14:21:15.508Z,98460.55
2023-03-12T14:24:39.517Z,98474.52
2023-03-12T14:27:58.734Z,98475.49
2023-03-12T14:31:21.778Z,98488.77
2023-03-12T14:34:44.365Z,98488.97
2023-03-12T14:38:19.188Z,98483.87
2023-03-12T14:41:42.015Z,98488.28
2023-03-12T14:45:08.790Z,98489.78
2023-03-12T14:48:32.675Z,98495.72
2023-03-12T14:51:50.607Z,98502.47
2023-03-12T14:55:14.411Z,98501.50
2023-03-12T14:58:30.453Z,98502.31
2023-03-12T15:01:48.709Z,98492.98
2023-03-12T15:05:08.544Z,98501.69
2023-03-12T15:08:26.565Z,98499.58
2023-03-12T15:11:46.023Z,98511.23
2023-03-12T15:15:08.830Z,98507.73
2023-03-12T15:18:31.602Z,98513.52
2023-03-12T15:21:48.283Z,98510.20
2023-03-12T15:25:08.863Z,98512.38
2023-03-12T15:28:39.179Z,98510.72
2023-03-12T15:32:42.664Z,98515.33
2023-03-12T15:35:49.333Z,98520.59
2023-03-12T15:39:09.887Z,98518.16
2023-03-12T15:42:29.814Z,98521.56
2023-03-12T15:45:48.525Z,98509.23
2023-03-12T15:49:08.286Z,98512.64
2023-03-12T15:52:40.120Z,98519.91
2023-03-12T15:56:16.686Z,98528.58
2023-03-12T15:59:35.665Z,98526.47
2023-03-12T16:03:00.176Z,98519.84
2023-03-12T16:06:36.844Z,98509.20
2023-03-12T16:09:53.151Z,98522.34
2023-03-12T16:13:15.200Z,98534.48
2023-03-12T16:17:38.900Z,98524.45
2023-03-12T16:20:56.871Z,98534.22
2023-03-12T16:24:13.730Z,98531.55
2023-03-12T16:27:32.691Z,98536.48
2023-03-12T16:34:04.131Z,98531.02
2023-03-12T16:37:21.349Z,98532.97
2023-03-12T16:40:40.659Z,98523.91
2023-03-12T16:47:15.931Z,98521.56
2023-03-12T16:50:32.773Z,98513.16
2023-03-12T16:54:01.989Z,98521.20
2023-03-12T16:57:08.678Z,98523.45
2023-03-12T17:00:30.973Z,98534.41
2023-03-12T17:03:50.399Z,98528.03
2023-03-12T17:07:04.431Z,98528.50
2023-03-12T17:10:24.501Z,98532.91
2023-03-12T17:13:43.937Z,98546.37
2023-03-12T17:20:22.669Z,98557.60
2023-03-12T17:23:39.586Z,98558.73
2023-03-12T17:26:57.482Z,98556.41
2023-03-12T17:33:30.758Z,98552.95
2023-03-12T17:36:49.225Z,98553.78
2023-03-12T17:40:08.164Z,98546.34
2023-03-12T17:43:24.134Z,98538.91
2023-03-12T17:46:56.514Z,98538.91
2023-03-12T17:50:05.593Z,98537.18
2023-03-12T17:53:22.055Z,98539.96
2023-03-12T17:56:39.145Z,98535.52
2023-03-12T17:59:55.343Z,98538.30
2023-03-12T18:03:13.097Z,98539.58
2023-03-12T18:06:29.412Z,98542.87
2023-03-12T18:09:46.232Z,98536.49
2023-03-12T18:13:02.940Z,98533.20
2023-03-12T18:16:19.211Z,98535.58
2023-03-12T18:19:36.150Z,98538.36
2023-03-12T18:22:53.453Z,98541.42
2023-03-12T18:26:11.848Z,98537.13
2023-03-12T18:29:27.825Z,98531.61
2023-03-12T18:32:46.421Z,98539.10
2023-03-12T18:36:02.890Z,98524.91
2023-03-12T18:39:20.238Z,98522.28
2023-03-12T18:42:38.778Z,98526.03
2023-03-12T18:45:55.743Z,98522.05
2023-03-12T18:49:17.377Z,98520.67
2023-03-12T18:52:34.147Z,98521.41
2023-03-12T18:55:58.146Z,98523.34
2023-03-12T18:59:15.756Z,98521.17
2023-03-12T19:02:48.197Z,98520.33
2023-03-12T19:06:14.814Z,98522.56
2023-03-12T19:09:30.907Z,98531.28
2023-03-12T19:12:52.610Z,98520.09
2023-03-12T19:16:11.496Z,98530.28
2023-03-12T19:19:27.661Z,98530.28
2023-03-12T19:22:43.765Z,98521.45
2023-03-12T19:26:00.488Z,98513.34
2023-03-12T19:29:17.388Z,98523.98
2023-03-12T19:32:43.188Z,98521.48
2023-03-12T19:35:52.848Z,98528.69
2023-03-12T19:39:20.572Z,98520.55
2023-03-12T19:42:30.451Z,98534.69
2023-03-12T19:49:03.993Z,98535.13
2023-03-12T19:52:21.837Z,98530.03
2023-03-12T19:55:38.920Z,98533.77
2023-03-12T19:58:55.620Z,98527.52
2023-03-12T20:02:12.177Z,98522.98
2023-03-12T20:05:28.886Z,98522.73
2023-03-12T20:08:46.468Z,98523.28
2023-03-12T20:12:02.630Z,98515.98
2023-03-12T20:15:21.190Z,98527.98
2023-03-12T20:18:37.654Z,98529.64
2023-03-12T20:21:56.137Z,98522.59
2023-03-12T20:25:13.909Z,98512.91
2023-03-12T20:28:32.009Z,98517.77
2023-03-12T20:35:06.924Z,98516.16
2023-03-12T20:38:23.437Z,98504.82
2023-03-12T20:41:42.856Z,98496.70
2023-03-12T20:44:59.188Z,98510.63
2023-03-12T20:48:19.896Z,98500.98
2023-03-12T20:51:36.278Z,98489.55
2023-03-12T20:54:52.570Z,98486.48
2023-03-12T20:58:11.637Z,98477.81
2023-03-12T21:01:27.796Z,98467.88
2023-03-12T21:04:44.436Z,98462.47
2023-03-12T21:08:02.430Z,98459.86
2023-03-12T21:11:18.679Z,98455.44
2023-03-12T21:14:40.023Z,98444.44
2023-03-12T21:17:56.084Z,98432.30
2023-03-12T21:21:14.461Z,98427.33
2023-03-12T21:24:30.745Z,98435.16
2023-03-12T21:27:50.926Z,98428.96
2023-03-12T21:34:22.330Z,98429.50
2023-03-12T21:37:38.729Z,98424.95
2023-03-12T21:40:57.891Z,98421.22
2023-03-12T21:44:16.477Z,98416.79
2023-03-12T21:47:32.436Z,98413.59
2023-03-12T21:50:48.512Z,98410.66
2023-03-12T21:54:07.332Z,98406.42
2023-03-12T21:57:26.236Z,98406.27
2023-03-12T22:00:42.303Z,98411.89
2023-03-12T22:03:58.307Z,98403.34
2023-03-12T22:07:14.583Z,98403.88
2023-03-12T22:10:30.636Z,98400.14
2023-03-12T22:13:47.344Z,98400.83
2023-03-12T22:20:22.287Z,98386.98
2023-03-12T22:23:39.849Z,98387.67
2023-03-12T22:26:56.107Z,98377.72
2023-03-12T22:30:15.580Z,98365.72
2023-03-12T22:33:31.624Z,98365.72
2023-03-12T22:36:49.894Z,98363.63
2023-03-12T22:40:08.091Z,98357.27
2023-03-12T22:43:24.531Z,98357.11
2023-03-12T22:46:41.540Z,98371.14
2023-03-12T22:49:59.208Z,98370.83
2023-03-12T22:53:15.208Z,98370.39
2023-03-12T22:56:31.563Z,98362.67
2023-03-12T22:59:47.716Z,98365.83
2023-03-12T23:06:22.765Z,98359.83
2023-03-12T23:09:39.473Z,98361.33
2023-03-12T23:12:55.654Z,98361.04
2023-03-12T23:19:28.367Z,98369.58
2023-03-12T23:22:44.524Z,98362.08
2023-03-12T23:26:05.076Z,98350.44
2023-03-12T23:29:22.945Z,98346.37
2023-03-12T23:36:03.436Z,98372.34
2023-03-12T23:39:20.538Z,98358.76
2023-03-12T23:42:37.949Z,98357.47
2023-03-12T23:45:56.083Z,98356.05
2023-03-12T23:49:12.310Z,98341.63
2023-03-12T23:52:28.489Z,98342.66
2023-03-12T23:55:44.619Z,98345.80
2023-03-12T23:59:01.971Z,98348.63
